createdAt,value
2018-12-19T00:01:06.204Z,-2.71
2018-12-19T00:03:35.338Z,-2.75
2018-12-19T00:06:04.489Z,-2.77
2018-12-19T00:08:33.453Z,-2.76
2018-12-19T00:11:02.096Z,-2.77
2018-12-19T00:13:31.113Z,-2.81
2018-12-19T00:16:00.095Z,-2.80
2018-12-19T00:18:28.895Z,-2.72
2018-12-19T00:20:57.551Z,-2.72
2018-12-19T00:23:26.241Z,-2.70
2018-12-19T00:25:54.938Z,-2.68
2018-12-19T00:28:23.729Z,-2.64
2018-12-19T00:30:52.481Z,-2.67
2018-12-19T00:33:21.589Z,-2.67
2018-12-19T00:35:50.567Z,-2.62
2018-12-19T00:38:19.724Z,-2.60
2018-12-19T00:40:48.611Z,-2.59
2018-12-19T00:43:17.730Z,-2.59
2018-12-19T00:45:46.978Z,-2.56
2018-12-19T00:48:15.678Z,-2.56
2018-12-19T00:50:44.576Z,-2.59
2018-12-19T00:53:13.628Z,-2.57
2018-12-19T00:55:43.024Z,-2.60
2018-12-19T00:58:11.846Z,-2.60
2018-12-19T01:00:40.881Z,-2.62
2018-12-19T01:03:10.104Z,-2.58
2018-12-19T01:05:39.029Z,-2.54
2018-12-19T01:08:08.188Z,-2.54
2018-12-19T01:10:37.176Z,-2.56
2018-12-19T01:13:06.138Z,-2.57
2018-12-19T01:15:35.390Z,-2.53
2018-12-19T01:18:04.583Z,-2.54
2018-12-19T01:20:33.356Z,-2.53
2018-12-19T01:23:02.091Z,-2.47
2018-12-19T01:25:30.845Z,-2.43
2018-12-19T01:27:59.914Z,-4.09
2018-12-19T01:30:28.699Z,-2.38
2018-12-19T01:32:57.934Z,-2.36
2018-12-19T01:35:26.721Z,-2.33
2018-12-19T01:37:55.598Z,-3.02
2018-12-19T01:40:24.285Z,-2.39
2018-12-19T01:42:53.466Z,-2.36
2018-12-19T01:45:22.647Z,-2.35
2018-12-19T01:47:51.576Z,-2.31
2018-12-19T01:50:21.110Z,-2.28
2018-12-19T01:52:51.031Z,-2.24
2018-12-19T01:55:20.111Z,-2.27
2018-12-19T01:57:48.985Z,-2.23
2018-12-19T02:00:20.041Z,-2.20
2018-12-19T02:02:49.005Z,-2.17
2018-12-19T02:05:17.823Z,-2.25
2018-12-19T02:07:46.612Z,-2.33
2018-12-19T02:10:15.744Z,-2.25
2018-12-19T02:12:44.983Z,-2.22
2018-12-19T02:15:13.903Z,-2.19
2018-12-19T02:17:42.633Z,-2.20
2018-12-19T02:20:11.448Z,-2.17
2018-12-19T02:22:40.236Z,-2.15
2018-12-19T02:25:10.044Z,-2.14
2018-12-19T02:27:39.052Z,-2.16
2018-12-19T02:30:08.130Z,-2.15
2018-12-19T02:32:36.879Z,-2.17
2018-12-19T02:35:05.837Z,-2.23
2018-12-19T02:37:34.757Z,-2.27
2018-12-19T02:40:03.623Z,-2.25
2018-12-19T02:42:32.712Z,-2.21
2018-12-19T02:45:01.736Z,-2.24
2018-12-19T02:47:30.811Z,-2.23
2018-12-19T02:49:59.455Z,-2.25
2018-12-19T02:52:28.359Z,-2.23
2018-12-19T02:54:57.253Z,-2.19
2018-12-19T02:57:26.167Z,-2.18
2018-12-19T02:59:55.102Z,-2.13
2018-12-19T03:02:23.996Z,-2.10
2018-12-19T03:04:52.899Z,-2.08
2018-12-19T03:07:22.132Z,-2.08
2018-12-19T03:09:51.156Z,-2.04
2018-12-19T03:12:20.382Z,-2.01
2018-12-19T03:14:49.126Z,-2.03
2018-12-19T03:17:17.930Z,-2.03
2018-12-19T03:19:46.823Z,-2.04
2018-12-19T03:22:15.966Z,-2.03
2018-12-19T03:24:45.205Z,-2.00
2018-12-19T03:27:14.078Z,-1.99
2018-12-19T03:29:43.081Z,-1.97
2018-12-19T03:32:11.894Z,-1.94
2018-12-19T03:34:41.062Z,-1.93
2018-12-19T03:37:09.888Z,-1.94
2018-12-19T03:39:38.895Z,-1.97
2018-12-19T03:42:07.623Z,-1.98
2018-12-19T03:44:36.517Z,-2.01
2018-12-19T03:47:05.454Z,-2.02
2018-12-19T03:49:34.400Z,-2.04
2018-12-19T03:52:03.518Z,-2.03
2018-12-19T03:54:32.808Z,-1.99
2018-12-19T03:57:01.923Z,-1.99
2018-12-19T03:59:30.669Z,-1.99
2018-12-19T04:01:59.506Z,-1.95
2018-12-19T04:04:28.557Z,-1.92
2018-12-19T04:06:57.325Z,-1.91
2018-12-19T04:09:26.037Z,-1.90
2018-12-19T04:11:54.767Z,-1.89
2018-12-19T04:14:24.037Z,-1.87
2018-12-19T04:16:53.210Z,-1.92
2018-12-19T04:19:22.106Z,-1.91
2018-12-19T04:21:51.134Z,-1.86
2018-12-19T04:24:20.279Z,-1.83
2018-12-19T04:26:49.525Z,-1.82
2018-12-19T04:29:18.602Z,-1.80
2018-12-19T04:31:47.689Z,-1.81
2018-12-19T04:34:16.723Z,-1.81
2018-12-19T04:36:45.900Z,-1.81
2018-12-19T04:39:14.783Z,-1.81
2018-12-19T04:41:44.276Z,-1.81
2018-12-19T04:44:13.350Z,-1.79
2018-12-19T04:46:42.097Z,-1.79
2018-12-19T04:49:11.890Z,-1.78
2018-12-19T04:51:40.601Z,-1.74
2018-12-19T04:54:09.602Z,-1.70
2018-12-19T04:56:38.443Z,-1.73
2018-12-19T04:59:07.577Z,-1.74
2018-12-19T05:01:36.932Z,-1.74
2018-12-19T05:04:06.037Z,-1.73
2018-12-19T05:06:34.767Z,-1.71
2018-12-19T05:09:05.938Z,-1.70
2018-12-19T05:11:35.349Z,-1.67
2018-12-19T05:14:04.569Z,-1.66
2018-12-19T05:16:33.824Z,-1.66
2018-12-19T05:19:02.600Z,-1.67
2018-12-19T05:21:31.325Z,-1.69
2018-12-19T05:23:59.999Z,-1.68
2018-12-19T05:26:28.998Z,-1.68
2018-12-19T05:28:57.972Z,-1.71
2018-12-19T05:31:26.860Z,-1.66
2018-12-19T05:33:55.744Z,-1.68
2018-12-19T05:36:26.408Z,-1.69
2018-12-19T05:38:55.514Z,-1.69
2018-12-19T05:41:24.517Z,-1.62
2018-12-19T05:43:53.617Z,-1.61
2018-12-19T05:46:22.445Z,-1.66
2018-12-19T05:48:51.439Z,-1.62
2018-12-19T05:51:20.100Z,-1.61
2018-12-19T05:53:48.874Z,-1.58
2018-12-19T05:56:17.695Z,-1.57
2018-12-19T05:58:46.754Z,-1.59
2018-12-19T06:01:15.435Z,-1.60
2018-12-19T06:03:44.622Z,-1.57
2018-12-19T06:06:13.764Z,-1.55
2018-12-19T06:08:42.561Z,-1.56
2018-12-19T06:11:11.641Z,-1.59
2018-12-19T06:13:40.731Z,-1.58
2018-12-19T06:16:09.396Z,-1.59
2018-12-19T06:18:38.447Z,-1.61
2018-12-19T06:21:07.259Z,-1.59
2018-12-19T06:23:35.964Z,-1.59
2018-12-19T06:26:05.103Z,-1.60
2018-12-19T06:28:34.039Z,-1.59
2018-12-19T06:31:03.088Z,-1.58
2018-12-19T06:33:31.797Z,-1.67
2018-12-19T06:36:01.209Z,-1.60
2018-12-19T06:38:30.009Z,-1.63
2018-12-19T06:40:58.754Z,-1.61
2018-12-19T06:43:27.958Z,-1.60
2018-12-19T06:45:56.681Z,-1.60
2018-12-19T06:48:25.625Z,-2.21
2018-12-19T06:50:54.588Z,-1.60
2018-12-19T06:53:23.223Z,-1.57
2018-12-19T06:55:51.942Z,-1.57
2018-12-19T06:58:20.813Z,-1.57
2018-12-19T07:00:49.579Z,-1.56
2018-12-19T07:03:18.726Z,-1.57
2018-12-19T07:05:47.534Z,-1.57
2018-12-19T07:08:16.380Z,-1.58
2018-12-19T07:10:45.242Z,-1.61
2018-12-19T07:13:14.452Z,-1.57
2018-12-19T07:15:43.387Z,-1.57
2018-12-19T07:18:12.283Z,-1.55
2018-12-19T07:20:41.071Z,-1.53
2018-12-19T07:23:09.928Z,-1.54
2018-12-19T07:25:38.752Z,-1.51
2018-12-19T07:28:07.456Z,-1.52
2018-12-19T07:30:36.365Z,-1.52
2018-12-19T07:33:05.658Z,-1.52
2018-12-19T07:35:34.679Z,-1.52
2018-12-19T07:38:03.718Z,-1.51
2018-12-19T07:40:32.819Z,-1.50
2018-12-19T07:43:01.791Z,-1.50
2018-12-19T07:45:30.664Z,-1.46
2018-12-19T07:47:59.602Z,-1.44
2018-12-19T07:50:28.829Z,-1.43
2018-12-19T07:52:57.534Z,-1.46
2018-12-19T07:55:28.098Z,-1.44
2018-12-19T07:57:56.927Z,-1.39
2018-12-19T08:00:27.615Z,-1.36
2018-12-19T08:02:56.519Z,-1.36
2018-12-19T08:05:26.353Z,-1.34
2018-12-19T08:07:55.863Z,-1.33
2018-12-19T08:10:24.951Z,-1.33
2018-12-19T08:12:54.089Z,-1.33
2018-12-19T08:15:22.769Z,-1.38
2018-12-19T08:17:51.641Z,-1.37
2018-12-19T08:20:20.699Z,-1.35
2018-12-19T08:22:49.636Z,-1.34
2018-12-19T08:25:18.483Z,-1.36
2018-12-19T08:27:47.171Z,-1.44
2018-12-19T08:30:15.886Z,-1.46
2018-12-19T08:32:44.515Z,-1.49
2018-12-19T08:35:13.400Z,-1.49
2018-12-19T08:37:42.219Z,-1.51
2018-12-19T08:40:11.391Z,-1.52
2018-12-19T08:42:40.254Z,-1.53
2018-12-19T08:45:09.342Z,-1.56
2018-12-19T08:47:38.307Z,-1.64
2018-12-19T08:50:09.336Z,-1.73
2018-12-19T08:52:38.544Z,-1.75
2018-12-19T08:55:08.583Z,-1.74
2018-12-19T08:57:37.684Z,-1.71
2018-12-19T09:00:08.314Z,-1.69
2018-12-19T09:02:37.369Z,-1.68
2018-12-19T09:05:06.524Z,-1.70
2018-12-19T09:07:35.603Z,-1.66
2018-12-19T09:10:05.213Z,-1.63
2018-12-19T09:12:34.077Z,-1.64
2018-12-19T09:15:02.776Z,-1.61
2018-12-19T09:17:31.988Z,-1.64
2018-12-19T09:20:01.010Z,-1.66
2018-12-19T09:22:30.177Z,-1.67
2018-12-19T09:24:58.932Z,-1.61
2018-12-19T09:27:27.896Z,-1.61
2018-12-19T09:29:56.878Z,-1.64
2018-12-19T09:32:25.909Z,-1.61
2018-12-19T09:34:55.178Z,-1.60
2018-12-19T09:37:24.392Z,-1.59
2018-12-19T09:39:53.066Z,-1.55
2018-12-19T09:42:21.747Z,-1.54
2018-12-19T09:44:50.725Z,-1.54
2018-12-19T09:47:19.655Z,-1.66
2018-12-19T09:50:19.374Z,-1.71
2018-12-19T09:52:48.547Z,-1.67
2018-12-19T09:55:17.437Z,-1.63
2018-12-19T09:57:46.423Z,-1.61
2018-12-19T10:00:33.643Z,-1.57
2018-12-19T10:03:02.327Z,-1.52
2018-12-19T10:05:31.462Z,-1.50
2018-12-19T10:08:00.561Z,-1.48
2018-12-19T10:10:29.858Z,-1.47
2018-12-19T10:12:59.027Z,-1.53
2018-12-19T10:15:27.895Z,-1.58
2018-12-19T10:17:56.654Z,-1.56
2018-12-19T10:20:25.897Z,-1.61
2018-12-19T10:22:56.160Z,-1.57
2018-12-19T10:25:25.401Z,-1.51
2018-12-19T10:27:54.194Z,-1.51
2018-12-19T10:30:23.496Z,-1.50
2018-12-19T10:32:57.046Z,-1.44
2018-12-19T10:35:26.667Z,-1.52
2018-12-19T10:37:55.440Z,-1.51
2018-12-19T10:40:24.901Z,-1.49
2018-12-19T10:42:54.177Z,-1.50
2018-12-19T10:45:22.996Z,-1.51
2018-12-19T10:47:51.933Z,-1.52
2018-12-19T10:50:21.122Z,-1.66
2018-12-19T10:52:50.268Z,-1.68
2018-12-19T10:55:19.303Z,-1.62
2018-12-19T10:57:47.942Z,-1.58
2018-12-19T11:00:21.779Z,-1.53
2018-12-19T11:02:50.621Z,-1.49
2018-12-19T11:05:19.724Z,-1.48
2018-12-19T11:07:48.897Z,-1.47
2018-12-19T11:10:18.292Z,-1.48
2018-12-19T11:12:48.065Z,-1.49
2018-12-19T11:15:16.923Z,-1.47
2018-12-19T11:17:45.949Z,-1.46
2018-12-19T11:20:15.167Z,-1.46
2018-12-19T11:22:44.218Z,-1.51
2018-12-19T11:25:13.398Z,-1.49
2018-12-19T11:27:42.528Z,-1.51
2018-12-19T11:30:11.613Z,-1.48
2018-12-19T11:32:40.661Z,-1.44
2018-12-19T11:35:09.546Z,-1.41
2018-12-19T11:37:38.591Z,-1.42
2018-12-19T11:40:09.057Z,-1.42
2018-12-19T11:42:37.975Z,-1.44
2018-12-19T11:45:07.773Z,-1.47
2018-12-19T11:47:36.714Z,-1.48
2018-12-19T11:50:06.855Z,-1.44
2018-12-19T11:52:35.642Z,-1.41
2018-12-19T11:55:04.626Z,-1.43
2018-12-19T11:57:34.467Z,-1.49
2018-12-19T12:00:03.980Z,-1.49
2018-12-19T12:02:33.164Z,-1.52
2018-12-19T12:05:01.880Z,-1.51
2018-12-19T12:07:30.964Z,-1.50
2018-12-19T12:09:59.957Z,-1.47
2018-12-19T12:12:29.202Z,-1.48
2018-12-19T12:14:58.335Z,-1.48
2018-12-19T12:17:27.415Z,-1.55
2018-12-19T12:19:56.852Z,-1.57
2018-12-19T12:22:26.240Z,-1.51
2018-12-19T12:24:54.915Z,-1.56
2018-12-19T12:27:23.615Z,-1.59
2018-12-19T12:29:52.423Z,-1.53
2018-12-19T12:32:21.106Z,-1.52
2018-12-19T12:34:50.261Z,-1.48
2018-12-19T12:37:19.211Z,-1.47
2018-12-19T12:39:48.118Z,-1.49
2018-12-19T12:42:17.178Z,-1.55
2018-12-19T12:44:46.556Z,-1.57
2018-12-19T12:47:15.398Z,-1.63
2018-12-19T12:49:44.171Z,-1.65
2018-12-19T12:52:12.903Z,-1.69
2018-12-19T12:54:41.524Z,-1.79
2018-12-19T12:57:10.428Z,-1.84
2018-12-19T12:59:39.267Z,-1.86
2018-12-19T13:02:07.982Z,-1.90
2018-12-19T13:04:36.736Z,-1.93
2018-12-19T13:07:05.564Z,-1.98
2018-12-19T13:09:34.555Z,-2.02
2018-12-19T13:12:03.649Z,-2.11
2018-12-19T13:14:32.698Z,-2.15
2018-12-19T13:17:01.563Z,-2.21
2018-12-19T13:19:30.355Z,-2.24
2018-12-19T13:21:59.227Z,-2.25
2018-12-19T13:24:28.171Z,-2.25
2018-12-19T13:26:57.100Z,-2.23
2018-12-19T13:29:25.910Z,-2.21
2018-12-19T13:31:55.007Z,-2.21
2018-12-19T13:34:23.798Z,-2.18
2018-12-19T13:36:52.636Z,-2.18
2018-12-19T13:39:21.408Z,-2.18
2018-12-19T13:41:50.127Z,-2.16
2018-12-19T13:44:18.829Z,-2.12
2018-12-19T13:46:47.672Z,-2.09
2018-12-19T13:49:16.850Z,-2.07
2018-12-19T13:51:45.849Z,-2.05
2018-12-19T13:54:14.840Z,-2.05
2018-12-19T13:56:43.676Z,-2.01
2018-12-19T13:59:12.391Z,-2.00
2018-12-19T14:01:41.134Z,-1.97
2018-12-19T14:04:10.171Z,-1.96
2018-12-19T14:06:38.869Z,-1.94
2018-12-19T14:09:08.286Z,-1.96
2018-12-19T14:11:37.134Z,-1.93
2018-12-19T14:14:06.721Z,-1.91
2018-12-19T14:16:36.111Z,-1.91
2018-12-19T14:19:05.189Z,-1.91
2018-12-19T14:21:34.026Z,-1.97
2018-12-19T14:24:02.979Z,-1.96
2018-12-19T14:26:32.269Z,-1.94
2018-12-19T14:29:01.351Z,-1.94
2018-12-19T14:31:30.338Z,-1.97
2018-12-19T14:34:00.121Z,-1.94
2018-12-19T14:36:29.353Z,-1.98
2018-12-19T14:38:58.400Z,-1.90
2018-12-19T14:41:27.819Z,-1.89
2018-12-19T14:43:56.858Z,-1.89
2018-12-19T14:46:25.536Z,-1.90
2018-12-19T14:48:54.413Z,-2.01
2018-12-19T14:51:23.702Z,-2.06
2018-12-19T14:53:52.726Z,-2.02
2018-12-19T14:56:21.758Z,-1.97
2018-12-19T14:58:50.915Z,-1.99
2018-12-19T15:01:19.847Z,-2.00
2018-12-19T15:03:48.851Z,-2.23
2018-12-19T15:06:18.225Z,-2.07
2018-12-19T15:08:46.983Z,-2.04
2018-12-19T15:11:15.902Z,-2.05
2018-12-19T15:13:46.185Z,-2.04
2018-12-19T15:16:19.283Z,-2.03
2018-12-19T15:18:48.356Z,-1.99
2018-12-19T15:21:17.746Z,-1.97
2018-12-19T15:23:46.698Z,-1.95
2018-12-19T15:26:15.825Z,-1.98
2018-12-19T15:28:45.014Z,-2.11
2018-12-19T15:31:13.912Z,-2.09
2018-12-19T15:33:43.038Z,-2.06
2018-12-19T15:36:12.503Z,-2.01
2018-12-19T15:38:41.208Z,-1.98
2018-12-19T15:41:10.429Z,-1.94
2018-12-19T15:43:39.519Z,-1.92
2018-12-19T15:46:08.411Z,-1.93
2018-12-19T15:48:37.117Z,-1.92
2018-12-19T15:51:06.241Z,-1.91
2018-12-19T15:53:35.206Z,-1.89
2018-12-19T15:56:04.090Z,-1.88
2018-12-19T15:58:33.392Z,-2.17
2018-12-19T16:01:02.696Z,-1.83
2018-12-19T16:03:31.593Z,-1.85
2018-12-19T16:06:00.470Z,-1.85
2018-12-19T16:08:29.177Z,-1.88
2018-12-19T16:10:58.043Z,-1.96
2018-12-19T16:13:27.143Z,-1.94
2018-12-19T16:15:56.959Z,-1.96
2018-12-19T16:18:26.357Z,-1.89
2018-12-19T16:20:55.871Z,-1.85
2018-12-19T16:23:25.114Z,-1.81
2018-12-19T16:25:53.965Z,-1.76
2018-12-19T16:28:23.090Z,-1.76
2018-12-19T16:30:52.208Z,-1.76
2018-12-19T16:33:21.280Z,-1.83
2018-12-19T16:35:50.151Z,-1.84
2018-12-19T16:38:19.348Z,-1.77
2018-12-19T16:40:48.334Z,-1.72
2018-12-19T16:43:17.122Z,-1.77
2018-12-19T16:45:46.321Z,-1.89
2018-12-19T16:48:15.091Z,-1.73
2018-12-19T16:50:43.846Z,-1.69
2018-12-19T16:53:12.765Z,-1.69
2018-12-19T16:55:41.647Z,-1.67
2018-12-19T16:58:11.139Z,-1.63
2018-12-19T17:00:40.026Z,-1.62
2018-12-19T17:03:09.288Z,-1.61
2018-12-19T17:05:38.175Z,-1.59
2018-12-19T17:08:07.433Z,-1.55
2018-12-19T17:10:36.418Z,-1.59
2018-12-19T17:13:05.514Z,-1.52
2018-12-19T17:15:38.704Z,-1.56
2018-12-19T17:18:08.237Z,-1.49
2018-12-19T17:20:37.475Z,-1.46
2018-12-19T17:23:06.854Z,-1.51
2018-12-19T17:25:36.214Z,-1.48
2018-12-19T17:28:07.171Z,-1.46
2018-12-19T17:30:36.271Z,-1.44
2018-12-19T17:33:05.697Z,-1.41
2018-12-19T17:35:34.726Z,-1.47
2018-12-19T17:38:06.517Z,-1.50
2018-12-19T17:40:35.812Z,-1.49
2018-12-19T17:43:04.825Z,-1.48
2018-12-19T17:45:34.110Z,-1.47
2018-12-19T17:48:03.296Z,-1.46
2018-12-19T17:50:32.258Z,-1.43
2018-12-19T17:53:01.301Z,-1.46
2018-12-19T17:55:31.141Z,-1.48
2018-12-19T17:58:01.303Z,-1.49
2018-12-19T18:00:30.482Z,-1.50
2018-12-19T18:02:59.749Z,-1.52
2018-12-19T18:05:29.009Z,-1.57
2018-12-19T18:07:57.995Z,-1.59
2018-12-19T18:10:27.107Z,-1.59
2018-12-19T18:12:56.220Z,-1.59
2018-12-19T18:15:25.661Z,-1.59
2018-12-19T18:17:55.003Z,-1.64
2018-12-19T18:20:24.354Z,-1.61
2018-12-19T18:22:53.743Z,-1.55
2018-12-19T18:25:22.929Z,-1.58
2018-12-19T18:27:52.463Z,-1.50
2018-12-19T18:30:22.142Z,-1.49
2018-12-19T18:32:51.580Z,-1.44
2018-12-19T18:35:20.806Z,-1.42
2018-12-19T18:37:50.200Z,-1.38
2018-12-19T18:40:19.297Z,-1.37
2018-12-19T18:42:48.550Z,-1.34
2018-12-19T18:45:17.827Z,-1.37
2018-12-19T18:47:47.055Z,-1.36
2018-12-19T18:50:16.242Z,-1.36
2018-12-19T18:52:45.832Z,-1.38
2018-12-19T18:55:14.995Z,-1.38
2018-12-19T18:57:44.401Z,-1.40
2018-12-19T19:00:16.213Z,-1.39
2018-12-19T19:02:45.461Z,-1.38
2018-12-19T19:05:15.126Z,-1.37
2018-12-19T19:07:44.810Z,-1.37
2018-12-19T19:10:14.474Z,-1.33
2018-12-19T19:12:45.160Z,-1.31
2018-12-19T19:15:14.934Z,-1.32
2018-12-19T19:17:44.890Z,-1.26
2018-12-19T19:20:14.655Z,-1.28
2018-12-19T19:22:44.247Z,-1.27
2018-12-19T19:25:13.951Z,-1.29
2018-12-19T19:27:43.595Z,-1.30
2018-12-19T19:30:13.128Z,-1.27
2018-12-19T19:32:42.892Z,-1.26
2018-12-19T19:35:12.569Z,-1.29
2018-12-19T19:37:42.375Z,-1.25
2018-12-19T19:40:12.203Z,-1.24
2018-12-19T19:42:42.053Z,-1.23
2018-12-19T19:45:11.690Z,-1.24
2018-12-19T19:47:41.758Z,-1.23
2018-12-19T19:50:11.588Z,-1.19
2018-12-19T19:52:41.388Z,-1.20
2018-12-19T19:55:11.246Z,-1.21
2018-12-19T19:57:41.129Z,-1.21
2018-12-19T20:00:12.120Z,-1.23
2018-12-19T20:02:42.103Z,-1.23
2018-12-19T20:05:11.977Z,-1.25
2018-12-19T20:07:41.804Z,-1.24
2018-12-19T20:10:11.834Z,-1.24
2018-12-19T20:12:41.656Z,-1.30
2018-12-19T20:15:11.399Z,-1.28
2018-12-19T20:17:41.980Z,-1.29
2018-12-19T20:20:11.708Z,-1.35
2018-12-19T20:22:42.229Z,-1.37
2018-12-19T20:25:12.992Z,-1.37
2018-12-19T20:27:42.724Z,-1.37
2018-12-19T20:30:13.749Z,-1.38
2018-12-19T20:32:43.451Z,-1.38
2018-12-19T20:35:13.053Z,-1.37
2018-12-19T20:37:42.424Z,-1.38
2018-12-19T20:40:11.984Z,-1.38
2018-12-19T20:42:41.255Z,-1.40
2018-12-19T20:45:10.506Z,-1.37
2018-12-19T20:47:40.015Z,-1.37
2018-12-19T20:50:09.748Z,-1.43
2018-12-19T20:52:38.932Z,-1.46
2018-12-19T20:55:09.280Z,-1.47
2018-12-19T20:57:38.562Z,-1.44
2018-12-19T21:00:08.424Z,-1.46
2018-12-19T21:02:37.620Z,-1.44
2018-12-19T21:05:07.080Z,-1.44
2018-12-19T21:07:39.414Z,-1.44
2018-12-19T21:10:09.204Z,-1.44
2018-12-19T21:12:38.522Z,-1.45
2018-12-19T21:15:08.590Z,-1.41
2018-12-19T21:17:43.498Z,-1.37
2018-12-19T21:20:12.717Z,-1.42
2018-12-19T21:22:42.151Z,-1.40
2018-12-19T21:25:11.531Z,-1.40
2018-12-19T21:27:40.730Z,-1.40
2018-12-19T21:30:10.752Z,-1.35
2018-12-19T21:32:40.019Z,-1.32
2018-12-19T21:35:09.349Z,-2.22
2018-12-19T21:37:38.643Z,-1.30
2018-12-19T21:40:08.156Z,-1.30
2018-12-19T21:42:37.534Z,-1.32
2018-12-19T21:45:07.123Z,-1.35
2018-12-19T21:47:35.885Z,-1.33
2018-12-19T21:50:05.064Z,-1.33
2018-12-19T21:52:33.995Z,-1.31
2018-12-19T21:55:02.763Z,-1.28
2018-12-19T21:57:31.564Z,-1.25
2018-12-19T22:00:00.323Z,-1.25
2018-12-19T22:02:29.130Z,-1.24
2018-12-19T22:04:58.104Z,-1.25
2018-12-19T22:07:26.861Z,-1.28
2018-12-19T22:09:55.780Z,-1.35
2018-12-19T22:12:24.547Z,-1.38
2018-12-19T22:14:53.802Z,-1.41
2018-12-19T22:17:27.743Z,-1.43
2018-12-19T22:19:56.413Z,-1.43
2018-12-19T22:22:25.262Z,-1.51
2018-12-19T22:24:54.050Z,-1.58
2018-12-19T22:27:22.818Z,-1.68
2018-12-19T22:29:51.680Z,-1.77
2018-12-19T22:32:20.525Z,-1.90
2018-12-19T22:34:49.243Z,-1.98
2018-12-19T22:37:17.924Z,-2.03
2018-12-19T22:39:46.762Z,-2.04
2018-12-19T22:42:15.451Z,-2.08
2018-12-19T22:44:44.154Z,-2.13
2018-12-19T22:47:12.923Z,-2.16
2018-12-19T22:49:42.603Z,-2.18
2018-12-19T22:52:11.322Z,-2.19
2018-12-19T22:54:40.042Z,-2.18
2018-12-19T22:57:08.859Z,-2.19
2018-12-19T22:59:37.701Z,-2.20
2018-12-19T23:03:13.075Z,-2.16
2018-12-19T23:05:47.258Z,-2.14
2018-12-19T23:08:16.138Z,-2.11
2018-12-19T23:10:44.900Z,-2.09
2018-12-19T23:16:45.198Z,-2.05
2018-12-19T23:19:14.163Z,-2.03
2018-12-19T23:21:42.890Z,-2.02
2018-12-19T23:24:11.745Z,-2.00
2018-12-19T23:26:40.628Z,-1.98
2018-12-19T23:29:09.331Z,-1.96
2018-12-19T23:31:38.151Z,-1.97
2018-12-19T23:34:07.050Z,-1.96
2018-12-19T23:36:36.000Z,-1.98
2018-12-19T23:39:07.384Z,-2.02
2018-12-19T23:41:36.265Z,-2.07
2018-12-19T23:44:05.141Z,-2.10
2018-12-19T23:46:35.376Z,-2.12
2018-12-19T23:49:04.285Z,-2.17
2018-12-19T23:51:33.068Z,-2.20
2018-12-19T23:54:01.783Z,-2.26
2018-12-19T23:56:30.504Z,-2.27
2018-12-19T23:58:59.636Z,-2.21
